Time;durP1;ratioP1;P1;durP2;ratioP2;P2;SDS_P1;SDS_P2;PMS_P1;PMS_P2;Temp;Humidity;BMP_temperature;BMP_pressure;BME280_temperature;BME280_humidity;BME280_pressure;Samples;Min_cycle;Max_cycle;Signal;HPM_P1;HPM_P2
2023/04/03 00:01:19;;;;;;;7.85;5.30;;;;;;;14.02;47.08;98867.13;4991657;28;20054;-78
2023/04/03 00:03:45;;;;;;;8.40;5.60;;;;;;;13.88;46.94;98839.88;4995896;28;20430;-78
2023/04/03 00:06:11;;;;;;;12.18;6.95;;;;;;;14.06;46.77;98867.50;4995732;28;20034;-78
2023/04/03 00:08:38;;;;;;;11.13;6.45;;;;;;;13.45;46.68;98777.97;4995028;28;20036;-78
2023/04/03 00:11:05;;;;;;;8.35;5.43;;;;;;;13.64;46.87;98806.19;4995437;28;20113;-78
2023/04/03 00:13:31;;;;;;;9.25;5.13;;;;;;;13.97;46.78;98857.16;4994968;28;20105;-78
2023/04/03 00:15:57;;;;;;;6.43;4.20;;;;;;;13.96;46.76;98870.63;4995135;28;20065;-78
2023/04/03 00:18:22;;;;;;;6.38;4.07;;;;;;;13.92;46.69;98866.78;4994860;28;20105;-78
2023/04/03 00:20:48;;;;;;;8.00;3.88;;;;;;;13.87;46.73;98861.31;4993436;28;20480;-78
2023/04/03 00:23:13;;;;;;;6.85;3.33;;;;;;;13.63;46.58;98817.81;4993361;28;20029;-78
2023/04/03 00:25:39;;;;;;;5.78;3.45;;;;;;;13.85;46.81;98864.19;4994643;28;20053;-78
2023/04/03 00:28:05;;;;;;;6.38;3.90;;;;;;;13.51;46.94;98820.34;4994700;28;20030;-78
2023/04/03 00:30:30;;;;;;;4.97;3.10;;;;;;;13.27;46.82;98766.22;4994783;28;20030;-78
2023/04/03 00:32:56;;;;;;;6.43;3.25;;;;;;;13.85;46.55;98864.19;4993676;28;20026;-78
2023/04/03 00:35:22;;;;;;;3.92;3.15;;;;;;;13.58;46.62;98818.47;4994862;28;20041;-78
2023/04/03 00:37:51;;;;;;;4.30;3.00;;;;;;;13.39;46.68;98800.84;4994830;28;20043;-78
2023/04/03 00:40:16;;;;;;;3.83;2.47;;;;;;;13.71;46.56;98830.81;4994566;28;20129;-78
2023/04/03 00:42:43;;;;;;;4.70;2.67;;;;;;;13.62;46.39;98816.19;4994377;28;20539;-78
2023/04/03 00:45:17;;;;;;;3.28;1.65;;;;;;;13.92;46.64;98875.56;4976799;28;20408;-78
2023/04/03 00:47:43;;;;;;;3.72;2.33;;;;;;;13.92;46.70;98872.91;4992947;28;20039;-78
2023/04/03 00:50:09;;;;;;;3.35;2.30;;;;;;;13.91;46.85;98887.22;4994197;28;20030;-78
2023/04/03 00:52:37;;;;;;;4.78;2.55;;;;;;;13.78;46.83;98855.47;4993999;28;20034;-78
2023/04/03 00:55:07;;;;;;;3.47;2.38;;;;;;;13.92;46.64;98880.06;4992719;28;20124;-79
2023/04/03 00:57:33;;;;;;;2.80;2.45;;;;;;;13.20;46.51;98767.31;4994458;28;20094;-78
2023/04/03 01:00:09;;;;;;;3.33;2.10;;;;;;;13.64;46.65;98830.06;4994420;28;20524;-78
2023/04/03 01:02:35;;;;;;;6.38;3.30;;;;;;;13.72;46.60;98853.66;4994239;28;20037;-78
2023/04/03 01:05:00;;;;;;;4.20;2.47;;;;;;;13.84;46.79;98875.00;4994194;28;20026;-78
2023/04/03 01:07:30;;;;;;;4.65;2.53;;;;;;;13.90;46.71;98887.41;4994444;28;20487;-78
2023/04/03 01:09:59;;;;;;;5.18;3.08;;;;;;;13.93;46.71;98885.16;4994214;28;20109;-78
2023/04/03 01:12:31;;;;;;;3.13;2.53;;;;;;;13.93;46.72;98889.66;4976770;28;20467;-78
2023/04/03 01:15:23;;;;;;;4.00;2.67;;;;;;;13.89;46.60;98881.31;4993260;28;20030;-78
2023/04/03 01:17:56;;;;;;;2.72;2.20;;;;;;;13.89;46.67;98877.84;4994159;28;20022;-79
2023/04/03 01:20:35;;;;;;;3.47;2.58;;;;;;;13.88;46.71;98879.69;4994463;28;20041;-78
2023/04/03 01:23:10;;;;;;;3.28;2.33;;;;;;;13.87;46.43;98875.41;4994161;28;20057;-79
2023/04/03 01:25:42;;;;;;;3.97;2.63;;;;;;;13.77;46.51;98864.44;4993771;28;20026;-78
2023/04/03 01:28:11;;;;;;;4.22;2.10;;;;;;;13.59;46.71;98845.81;4993423;28;20023;-78
2023/04/03 01:30:43;;;;;;;3.65;2.05;;;;;;;13.83;46.69;98884.81;4993349;28;20037;-78
2023/04/03 01:33:08;;;;;;;4.03;2.78;;;;;;;12.87;46.64;98736.47;4993308;28;20487;-78
2023/04/03 01:35:34;;;;;;;4.55;2.60;;;;;;;13.80;46.92;98879.94;4993215;28;20033;-78
2023/04/03 01:37:59;;;;;;;5.45;2.47;;;;;;;13.79;46.82;98880.97;4993127;28;20101;-78
2023/04/03 01:40:25;;;;;;;6.57;2.42;;;;;;;13.50;47.07;98837.28;4994627;28;20108;-78
2023/04/03 01:42:51;;;;;;;6.38;3.22;;;;;;;13.20;47.01;98793.81;4995644;28;20407;-78
2023/04/03 01:45:17;;;;;;;6.18;2.80;;;;;;;13.75;47.12;98885.06;4993790;28;20030;-79
2023/04/03 01:47:42;;;;;;;4.88;2.40;;;;;;;13.02;47.29;98770.63;4993895;28;20134;-79
2023/04/03 01:50:08;;;;;;;6.43;3.10;;;;;;;12.70;47.05;98722.09;4992570;28;20594;-79
2023/04/03 01:52:33;;;;;;;5.43;3.50;;;;;;;13.75;47.20;98893.03;4993158;28;20041;-79
2023/04/03 01:54:59;;;;;;;5.03;3.60;;;;;;;12.76;47.21;98729.22;4993131;28;20050;-78
2023/04/03 01:57:24;;;;;;;4.55;3.15;;;;;;;13.73;47.15;98884.47;4992782;28;20098;-78
2023/04/03 01:59:51;;;;;;;6.15;3.80;;;;;;;13.10;47.31;98778.34;4992524;28;20515;-78
2023/04/03 02:02:16;;;;;;;7.57;4.07;;;;;;;13.76;47.12;98883.22;4992733;28;20125;-78
2023/04/03 02:04:42;;;;;;;5.28;3.33;;;;;;;13.35;47.39;98826.94;4992982;28;20531;-78
2023/04/03 02:07:07;;;;;;;6.43;3.83;;;;;;;13.69;47.39;98888.59;4992652;28;20141;-78
2023/04/03 02:09:33;;;;;;;7.50;3.58;;;;;;;13.67;47.45;98888.00;4992909;28;20108;-78
2023/04/03 02:11:58;;;;;;;6.50;3.50;;;;;;;13.70;47.37;98908.78;4992051;28;20026;-78
2023/04/03 02:14:24;;;;;;;4.85;3.65;;;;;;;13.60;47.23;98888.03;4992792;28;20068;-78
2023/04/03 02:16:50;;;;;;;6.85;3.78;;;;;;;13.67;47.51;98901.25;4992954;28;20097;-78
2023/04/03 02:19:15;;;;;;;6.13;4.38;;;;;;;13.45;47.58;98863.63;4992977;28;20483;-78
2023/04/03 02:21:41;;;;;;;8.18;4.68;;;;;;;13.66;47.24;98900.44;4992928;28;20030;-78
2023/04/03 02:24:07;;;;;;;6.90;4.55;;;;;;;13.57;47.48;98885.81;4992561;28;20034;-78
2023/04/03 02:26:32;;;;;;;8.65;4.85;;;;;;;13.68;47.56;98902.88;4992429;28;20488;-78
2023/04/03 02:28:57;;;;;;;9.40;6.13;;;;;;;13.00;47.44;98820.38;4992351;28;20026;-78
2023/04/03 02:31:23;;;;;;;8.18;5.10;;;;;;;13.66;47.70;98903.09;4992393;28;20113;-78
2023/04/03 02:33:49;;;;;;;6.35;4.10;;;;;;;13.48;47.63;98871.16;4992325;28;20419;-78
2023/04/03 02:36:15;;;;;;;7.70;3.95;;;;;;;13.54;47.64;98891.53;4992352;28;20026;-78
2023/04/03 02:38:41;;;;;;;10.93;4.50;;;;;;;12.90;47.76;98791.69;4990770;28;20033;-78
2023/04/03 02:41:08;;;;;;;7.75;5.28;;;;;;;13.59;47.67;98909.47;4991988;28;20022;-78
2023/04/03 02:43:34;;;;;;;9.85;5.60;;;;;;;13.31;47.88;98884.09;4992162;28;20515;-78
2023/04/03 02:46:00;;;;;;;11.05;5.68;;;;;;;13.48;48.06;98916.25;4992184;28;20049;-78
2023/04/03 02:48:26;;;;;;;7.75;5.45;;;;;;;13.49;47.88;98909.91;4974640;28;20026;-77
2023/04/03 02:50:51;;;;;;;9.88;5.00;;;;;;;12.68;48.07;98785.88;4990869;28;20050;-78
2023/04/03 02:53:17;;;;;;;6.90;5.20;;;;;;;13.30;47.84;98881.63;4992012;28;20041;-78
2023/04/03 02:55:42;;;;;;;10.60;5.10;;;;;;;13.41;47.92;98888.16;4991823;28;20038;-78
2023/04/03 02:58:08;;;;;;;9.15;4.97;;;;;;;13.30;48.11;98890.41;4990574;28;20581;-78
2023/04/03 03:00:33;;;;;;;6.90;5.13;;;;;;;13.42;47.81;98909.16;4991802;28;20057;-78
2023/04/03 03:02:59;;;;;;;9.00;5.93;;;;;;;13.20;47.95;98879.44;4991987;28;20034;-78
2023/04/03 03:05:26;;;;;;;9.32;5.05;;;;;;;13.29;47.88;98895.91;4990762;28;20034;-78
2023/04/03 03:07:51;;;;;;;9.35;7.75;;;;;;;13.05;48.08;98870.91;4991808;28;20432;-78
2023/04/03 03:10:19;;;;;;;7.25;5.35;;;;;;;13.12;48.08;98900.84;4991210;28;20061;-78
2023/04/03 03:12:44;;;;;;;5.95;4.55;;;;;;;12.98;48.28;98870.13;4991002;28;20073;-78
2023/04/03 03:15:10;;;;;;;5.85;4.60;;;;;;;13.16;48.38;98888.00;4992344;28;20061;-78
2023/04/03 03:17:36;;;;;;;6.93;4.50;;;;;;;13.01;48.33;98869.72;4974776;28;20053;-78
2023/04/03 03:20:02;;;;;;;6.95;3.70;;;;;;;13.05;48.21;98886.81;4992260;28;20479;-78
2023/04/03 03:22:28;;;;;;;5.40;3.90;;;;;;;12.44;48.47;98804.28;4992292;28;20028;-78
2023/04/03 03:24:53;;;;;;;5.93;3.83;;;;;;;12.14;48.46;98764.25;4990505;28;20026;-78
2023/04/03 03:27:19;;;;;;;5.47;3.45;;;;;;;12.45;48.55;98827.88;4974263;28;20026;-78
2023/04/03 03:29:44;;;;;;;4.20;3.80;;;;;;;12.74;48.86;98874.28;4991916;28;20031;-78
2023/04/03 03:32:10;;;;;;;6.30;3.67;;;;;;;12.03;48.59;98747.97;4991728;28;20027;-78
2023/04/03 03:34:35;;;;;;;4.38;3.45;;;;;;;12.87;48.69;98879.53;4990376;28;20038;-78
2023/04/03 03:37:00;;;;;;;5.05;4.30;;;;;;;12.39;48.68;98807.53;4992881;28;20080;-78
2023/04/03 03:39:26;;;;;;;6.45;4.05;;;;;;;12.76;48.44;98868.78;4995280;28;20113;-78
2023/04/03 03:41:53;;;;;;;8.30;4.97;;;;;;;11.53;48.49;98674.56;4995371;28;20506;-78
2023/04/03 03:44:19;;;;;;;6.63;4.57;;;;;;;12.50;48.53;98814.84;4995514;28;20491;-78
2023/04/03 03:46:45;;;;;;;6.60;4.55;;;;;;;12.89;48.37;98880.16;4995424;28;20053;-78
2023/04/03 03:49:11;;;;;;;9.07;4.65;;;;;;;11.87;48.24;98742.28;4977787;28;20491;-78
2023/04/03 03:51:37;;;;;;;7.00;4.75;;;;;;;12.35;48.57;98801.84;4995220;28;20041;-78
2023/04/03 03:54:03;;;;;;;10.38;4.60;;;;;;;12.08;48.64;98768.53;4995220;28;20026;-78
2023/04/03 03:56:29;;;;;;;5.38;4.88;;;;;;;12.48;48.84;98831.97;4995030;28;20503;-78
2023/04/03 03:58:56;;;;;;;8.27;5.40;;;;;;;12.55;49.36;98853.94;4995315;28;20055;-78
2023/04/03 04:01:22;;;;;;;9.80;6.03;;;;;;;11.45;49.62;98708.13;4993768;28;20069;-78
2023/04/03 04:03:48;;;;;;;10.57;5.55;;;;;;;12.61;49.65;98888.34;4995123;28;20041;-78
2023/04/03 04:06:13;;;;;;;8.32;5.45;;;;;;;11.67;50.14;98766.06;4995164;28;20030;-78
2023/04/03 04:08:39;;;;;;;10.15;5.63;;;;;;;12.41;49.93;98898.16;4994910;28;20026;-78
2023/04/03 04:11:05;;;;;;;6.47;4.85;;;;;;;12.37;50.38;98908.34;4995071;28;20109;-78
2023/04/03 04:13:30;;;;;;;6.00;4.70;;;;;;;11.85;49.70;98835.06;4994922;28;20443;-78
2023/04/03 04:15:56;;;;;;;9.00;5.35;;;;;;;12.30;50.52;98925.25;4994960;28;20034;-78
2023/04/03 04:18:22;;;;;;;8.30;5.35;;;;;;;12.31;50.64;98926.88;4994805;28;20018;-78
2023/04/03 04:20:48;;;;;;;8.40;5.47;;;;;;;11.47;50.81;98795.16;4994885;28;20031;-78
2023/04/03 04:23:14;;;;;;;11.70;8.35;;;;;;;12.24;50.10;98923.41;4994765;28;20037;-78
2023/04/03 04:25:39;;;;;;;10.20;7.57;;;;;;;12.24;50.48;98942.75;4994567;28;20026;-78
2023/04/03 04:28:05;;;;;;;10.73;6.57;;;;;;;12.24;50.87;98952.53;4994432;28;20031;-78
2023/04/03 04:30:30;;;;;;;8.77;5.85;;;;;;;12.28;50.42;98943.97;4994367;28;20038;-78
2023/04/03 04:32:56;;;;;;;9.88;7.05;;;;;;;12.32;50.73;98944.38;4994264;28;20030;-78
2023/04/03 04:35:21;;;;;;;10.77;7.18;;;;;;;11.72;50.80;98853.53;4994336;28;20488;-78
2023/04/03 04:37:47;;;;;;;17.70;12.50;;;;;;;11.24;50.21;98763.81;4976957;28;20084;-78
2023/04/03 04:40:12;;;;;;;26.27;17.77;;;;;;;12.44;49.83;98956.00;4994506;28;20105;-78
2023/04/03 04:42:37;;;;;;;27.85;20.15;;;;;;;12.29;49.81;98921.78;4994264;28;20030;-78
2023/04/03 04:45:03;;;;;;;24.55;17.20;;;;;;;12.19;50.04;98905.50;4994320;28;20107;-78
2023/04/03 04:47:29;;;;;;;24.25;15.32;;;;;;;12.49;49.64;98952.72;4994075;28;20470;-78
2023/04/03 04:49:55;;;;;;;17.17;12.82;;;;;;;12.47;49.45;98954.78;4993039;28;20030;-78
2023/04/03 04:52:20;;;;;;;15.75;12.27;;;;;;;12.47;49.29;98950.28;4994090;28;20108;-78
2023/04/03 04:54:46;;;;;;;17.38;12.80;;;;;;;12.31;49.43;98917.09;4994060;28;20038;-78
2023/04/03 04:57:11;;;;;;;16.20;11.30;;;;;;;11.72;49.60;98825.25;4993963;28;20030;-78
2023/04/03 04:59:37;;;;;;;18.77;11.07;;;;;;;11.38;49.28;98772.56;4993915;28;20508;-78
2023/04/03 05:02:02;;;;;;;15.35;9.85;;;;;;;12.48;49.58;98951.91;4993873;28;20499;-78
2023/04/03 05:04:28;;;;;;;16.58;10.63;;;;;;;11.68;49.24;98837.25;4993801;28;20555;-78
2023/04/03 05:06:53;;;;;;;17.55;12.40;;;;;;;12.19;49.58;98944.38;4993818;28;20467;-78
2023/04/03 05:09:20;;;;;;;23.42;15.60;;;;;;;12.29;49.27;98952.75;4993894;28;20030;-78
2023/04/03 05:11:45;;;;;;;19.25;12.68;;;;;;;12.43;49.72;98975.53;4992384;28;20109;-78
2023/04/03 05:14:11;;;;;;;19.70;12.02;;;;;;;12.44;49.43;98977.19;5002611;28;20117;-78
2023/04/03 05:16:37;;;;;;;19.65;12.23;;;;;;;12.46;49.35;98975.13;4996347;28;20037;-78
2023/04/03 05:19:03;;;;;;;19.85;13.52;;;;;;;11.50;49.24;98818.53;4993435;28;20551;-78
2023/04/03 05:21:31;;;;;;;20.17;13.20;;;;;;;11.85;49.22;98889.78;4993376;28;20049;-78
2023/04/03 05:23:58;;;;;;;17.48;13.20;;;;;;;11.84;49.09;98857.22;4992317;28;20026;-78
2023/04/03 05:26:23;;;;;;;23.27;14.60;;;;;;;12.62;49.33;98968.59;4993040;28;20120;-78
2023/04/03 05:28:49;;;;;;;22.65;15.45;;;;;;;12.65;48.59;98971.69;4993064;28;20070;-78
2023/04/03 05:31:14;;;;;;;17.48;13.57;;;;;;;12.36;48.81;98906.72;4990572;28;20073;-78
2023/04/03 05:33:40;;;;;;;22.13;14.68;;;;;;;11.51;48.88;98782.34;5008830;28;20074;-78
2023/04/03 05:36:06;;;;;;;19.08;13.40;;;;;;;12.84;49.00;98958.63;4992086;28;20038;-78
2023/04/03 05:38:32;;;;;;;15.25;10.50;;;;;;;12.29;48.90;98860.91;4993134;28;20526;-78
2023/04/03 05:40:58;;;;;;;19.10;13.63;;;;;;;12.99;48.68;98991.81;4992976;28;20066;-78
2023/04/03 05:43:23;;;;;;;19.55;12.52;;;;;;;12.96;48.48;98933.13;4992853;28;20483;-78
2023/04/03 05:45:49;;;;;;;23.50;15.77;;;;;;;12.31;48.56;98836.88;4991640;28;20026;-78
2023/04/03 05:48:14;;;;;;;22.35;14.68;;;;;;;12.70;48.48;98897.72;4991568;28;20030;-78
2023/04/03 05:50:42;;;;;;;19.80;13.23;;;;;;;13.22;48.41;98974.66;4992531;28;20022;-78
2023/04/03 05:53:15;;;;;;;19.33;14.48;;;;;;;13.12;47.73;98953.06;4992377;28;20022;-78
2023/04/03 05:55:41;;;;;;;32.28;19.88;;;;;;;13.29;48.08;98986.88;4992541;28;20034;-78
2023/04/03 05:58:06;;;;;;;33.83;23.42;;;;;;;13.20;47.58;98980.16;4992805;28;20025;-78
2023/04/03 06:00:32;;;;;;;25.27;17.83;;;;;;;13.15;48.19;98953.44;4991541;28;20058;-78
2023/04/03 06:02:57;;;;;;;21.63;15.13;;;;;;;12.43;48.07;98827.28;4992446;28;20100;-78
2023/04/03 06:05:23;;;;;;;18.33;13.18;;;;;;;12.49;47.82;98830.94;4992441;28;20442;-78
2023/04/03 06:07:49;;;;;;;21.52;12.75;;;;;;;13.44;47.85;98970.75;4992479;28;20478;-78
2023/04/03 06:10:15;;;;;;;19.80;10.98;;;;;;;13.02;48.06;98896.00;4990484;28;20117;-78
2023/04/03 06:12:41;;;;;;;13.80;8.93;;;;;;;12.91;47.93;98867.50;4988776;28;20603;-78
2023/04/03 06:15:09;;;;;;;14.70;8.75;;;;;;;12.77;47.88;98835.97;4990966;28;20034;-79
2023/04/03 06:17:36;;;;;;;11.35;8.13;;;;;;;12.60;47.25;98799.31;4988849;28;20018;-78
2023/04/03 06:20:01;;;;;;;12.30;8.00;;;;;;;12.68;47.44;98806.25;4988562;28;20100;-77
2023/04/03 06:22:29;;;;;;;13.60;7.57;;;;;;;12.82;47.20;98847.56;4988930;28;20018;-78
2023/04/03 06:24:55;;;;;;;12.95;8.63;;;;;;;13.50;47.42;98953.97;4990990;28;20030;-78
2023/04/03 06:27:20;;;;;;;15.93;9.68;;;;;;;13.33;47.66;98931.59;4989367;28;20418;-78
2023/04/03 06:29:46;;;;;;;13.52;9.95;;;;;;;13.55;47.78;98972.72;4990744;28;20061;-78
2023/04/03 06:32:11;;;;;;;17.63;10.13;;;;;;;13.57;47.91;98973.34;4987454;28;20046;-78
2023/04/03 06:34:37;;;;;;;16.60;10.48;;;;;;;13.59;48.11;98971.28;4996211;28;20061;-78
2023/04/03 06:37:03;;;;;;;14.52;10.68;;;;;;;13.65;48.05;98972.28;4991974;28;20026;-79
2023/04/03 06:39:29;;;;;;;14.88;11.35;;;;;;;12.92;48.33;98861.19;4991833;28;20034;-78
2023/04/03 06:41:55;;;;;;;15.77;12.02;;;;;;;12.83;48.15;98813.94;4991286;28;20088;-78
2023/04/03 06:44:20;;;;;;;15.52;10.77;;;;;;;13.86;48.18;98960.53;4988963;28;20030;-78
2023/04/03 06:46:46;;;;;;;13.55;11.70;;;;;;;13.92;48.22;98960.50;4989592;28;20119;-78
2023/04/03 06:49:12;;;;;;;17.48;12.15;;;;;;;13.11;47.96;98825.03;4993270;28;20026;-78
2023/04/03 06:51:37;;;;;;;15.68;11.75;;;;;;;14.06;48.08;98971.03;4989386;28;20026;-78
2023/04/03 06:54:04;;;;;;;15.90;10.70;;;;;;;14.14;47.95;98984.06;4989856;28;20511;-78
2023/04/03 06:56:30;;;;;;;16.00;10.48;;;;;;;13.61;47.99;98886.19;5002299;28;20084;-78
2023/04/03 06:58:57;;;;;;;7.25;5.32;;;;;;;13.46;47.94;98841.41;4971022;28;20486;-78
2023/04/03 07:01:25;;;;;;;7.25;4.80;;;;;;;14.32;47.83;98962.88;4990481;28;20054;-78
2023/04/03 07:03:51;;;;;;;8.00;6.60;;;;;;;14.42;47.43;98970.38;4991483;28;20022;-78
2023/04/03 07:06:18;;;;;;;6.65;4.90;;;;;;;14.47;47.17;98986.50;4992321;28;20041;-78
2023/04/03 07:08:44;;;;;;;7.38;4.55;;;;;;;14.52;47.25;98979.50;4987326;28;20065;-78
2023/04/03 07:11:12;;;;;;;6.88;4.72;;;;;;;14.57;47.36;98987.63;4989852;28;20046;-78
2023/04/03 07:13:38;;;;;;;8.75;6.25;;;;;;;14.61;46.96;98993.34;4992202;28;20415;-78
2023/04/03 07:16:05;;;;;;;10.48;6.72;;;;;;;13.24;47.05;98771.97;4994862;28;20030;-79
2023/04/03 07:18:31;;;;;;;11.88;8.00;;;;;;;14.53;46.97;98972.34;4993142;28;20058;-78
2023/04/03 07:20:57;;;;;;;11.15;7.00;;;;;;;14.76;46.83;99001.78;4988480;28;20033;-78
2023/04/03 07:23:23;;;;;;;11.27;6.85;;;;;;;14.81;46.92;99006.44;4990349;28;20038;-78
2023/04/03 07:25:50;;;;;;;9.82;5.53;;;;;;;14.63;46.88;98986.78;5005734;28;20030;-78
2023/04/03 07:28:17;;;;;;;13.23;5.30;;;;;;;14.44;46.93;98939.94;4994121;28;20034;-78
2023/04/03 07:30:47;;;;;;;12.68;6.20;;;;;;;14.04;47.07;98890.78;4991324;28;20034;-79
2023/04/03 07:33:15;;;;;;;8.30;5.20;;;;;;;14.96;46.90;99001.63;4977494;28;20034;-79
2023/04/03 07:35:41;;;;;;;7.47;5.07;;;;;;;14.99;47.00;98993.22;4992605;28;20133;-79
2023/04/03 07:38:06;;;;;;;7.82;4.90;;;;;;;15.01;47.14;99000.97;4993464;28;20128;-79
2023/04/03 07:40:33;;;;;;;9.25;6.70;;;;;;;15.05;47.03;98994.19;4993978;28;20523;-79
2023/04/03 07:42:58;;;;;;;9.52;6.65;;;;;;;14.68;47.33;98940.94;4977258;28;20145;-79
2023/04/03 07:45:24;;;;;;;11.27;7.25;;;;;;;15.09;47.13;99001.50;4992509;28;20101;-79
2023/04/03 07:47:50;;;;;;;8.48;7.60;;;;;;;14.23;47.30;98847.34;4995156;28;20033;-79
2023/04/03 07:50:16;;;;;;;10.07;6.57;;;;;;;14.59;47.34;98907.72;4992722;28;20030;-79
2023/04/03 07:52:41;;;;;;;10.30;5.47;;;;;;;15.11;47.33;98986.13;4993273;28;20038;-79
2023/04/03 07:55:07;;;;;;;7.78;5.35;;;;;;;15.24;47.59;98995.81;5002609;28;20026;-78
2023/04/03 07:57:33;;;;;;;10.32;6.70;;;;;;;15.26;47.42;98996.41;4993637;28;20105;-78
2023/04/03 07:59:58;;;;;;;10.13;8.68;;;;;;;15.29;47.06;99001.28;4993582;28;20050;-78
2023/04/03 08:02:24;;;;;;;9.98;6.63;;;;;;;15.33;47.23;98997.16;4993860;28;20420;-78
2023/04/03 08:04:50;;;;;;;13.25;7.45;;;;;;;14.86;47.13;98926.88;4992478;28;20146;-78
2023/04/03 08:07:15;;;;;;;14.82;8.60;;;;;;;15.43;46.96;98996.63;5006007;28;20034;-78
2023/04/03 08:09:41;;;;;;;33.05;10.07;;;;;;;15.18;47.18;98940.84;4992808;28;20108;-78
2023/04/03 08:12:06;;;;;;;67.80;13.45;;;;;;;15.51;47.16;98981.16;4976749;28;20122;-78
2023/04/03 08:14:34;;;;;;;34.40;13.77;;;;;;;15.52;46.83;98979.31;4994388;28;20018;-78
2023/04/03 08:17:00;;;;;;;24.20;13.70;;;;;;;15.39;47.06;98951.03;4994142;28;20507;-79
2023/04/03 08:19:26;;;;;;;30.60;18.95;;;;;;;15.60;46.89;98976.38;4993055;28;20050;-79
2023/04/03 08:21:53;;;;;;;20.63;12.20;;;;;;;14.85;46.63;98840.19;4994583;28;20022;-79
2023/04/03 08:24:18;;;;;;;16.05;9.65;;;;;;;15.42;46.60;98931.16;4991423;28;20431;-79
2023/04/03 08:26:44;;;;;;;19.55;9.45;;;;;;;15.10;46.89;98864.03;4995074;28;20033;-79
2023/04/03 08:29:09;;;;;;;17.83;8.35;;;;;;;15.42;46.47;98909.88;4992592;28;20023;-79
2023/04/03 08:31:35;;;;;;;13.82;7.43;;;;;;;15.16;46.61;98863.16;4993377;28;20491;-79
2023/04/03 08:34:00;;;;;;;18.80;8.57;;;;;;;15.89;46.72;98975.63;4993237;28;20504;-78
2023/04/03 08:36:28;;;;;;;21.05;9.07;;;;;;;15.87;46.39;98950.25;4992081;28;20117;-79
2023/04/03 08:38:54;;;;;;;13.27;7.30;;;;;;;15.76;46.30;98937.72;4990357;28;20033;-78
2023/04/03 08:41:30;;;;;;;12.38;7.60;;;;;;;16.09;46.41;98958.53;4988382;28;20026;-79
2023/04/03 08:44:01;;;;;;;18.42;10.85;;;;;;;16.02;46.37;98958.63;4992267;28;20088;-78
2023/04/03 08:46:43;;;;;;;13.48;7.78;;;;;;;15.78;46.41;98925.00;4988436;28;20030;-78
2023/04/03 08:49:22;;;;;;;15.02;8.20;;;;;;;15.30;46.65;98838.00;4992532;28;20038;-78
2023/04/03 08:51:50;;;;;;;18.08;8.88;;;;;;;15.93;46.63;98928.06;4991721;28;20511;-79
2023/04/03 08:54:34;;;;;;;15.27;9.93;;;;;;;16.10;46.24;98955.66;4990942;28;20415;-79
2023/04/03 08:57:03;;;;;;;18.88;9.13;;;;;;;16.10;46.61;98955.66;4980679;28;20034;-79
2023/04/03 08:59:33;;;;;;;13.50;7.85;;;;;;;16.09;46.50;98963.88;5007865;28;20117;-79
2023/04/03 09:02:06;;;;;;;13.65;9.80;;;;;;;15.79;46.84;98923.97;4993350;28;20124;-79
2023/04/03 09:04:33;;;;;;;12.98;7.65;;;;;;;16.06;46.85;98967.78;4989454;28;20050;-79
2023/04/03 09:07:07;;;;;;;11.18;7.20;;;;;;;15.96;47.32;98958.72;4993394;28;20037;-78
2023/04/03 09:09:40;;;;;;;10.65;6.13;;;;;;;15.52;47.45;98902.16;4991582;28;20126;-80
2023/04/03 09:12:18;;;;;;;10.25;5.15;;;;;;;15.77;47.51;98957.97;4992582;28;20495;-79
2023/04/03 09:14:56;;;;;;;13.38;8.32;;;;;;;15.74;47.67;98961.09;4993398;28;20084;-79
2023/04/03 09:17:43;;;;;;;10.70;5.93;;;;;;;15.76;48.07;98954.50;4991571;28;20522;-79
2023/04/03 09:20:30;;;;;;;11.27;6.88;;;;;;;15.79;47.74;98956.72;4992463;28;20037;-79
2023/04/03 09:22:55;;;;;;;9.93;5.55;;;;;;;15.20;48.29;98867.00;4993040;28;20104;-79
2023/04/03 09:25:47;;;;;;;10.70;7.00;;;;;;;15.80;48.80;98966.31;4989907;28;20514;-79
2023/04/03 09:28:13;;;;;;;8.45;6.47;;;;;;;15.58;49.02;98950.00;4988347;28;20073;-78
2023/04/03 09:30:38;;;;;;;10.52;6.38;;;;;;;15.77;49.58;98990.72;4991426;28;20490;-77
2023/04/03 09:33:05;;;;;;;9.10;6.55;;;;;;;15.76;50.07;98996.28;4991297;28;20030;-77
2023/04/03 09:35:33;;;;;;;8.70;6.75;;;;;;;15.71;50.34;98994.28;4987711;28;20104;-78
2023/04/03 09:38:13;;;;;;;12.73;7.13;;;;;;;15.72;50.50;99005.75;4990717;28;20022;-77
2023/04/03 09:40:45;;;;;;;12.55;7.70;;;;;;;14.84;51.27;98860.66;4981368;28;20453;-77
2023/04/03 09:43:16;;;;;;;13.60;8.85;;;;;;;15.62;51.37;98982.31;4992689;28;20511;-77
2023/04/03 09:45:42;;;;;;;11.73;9.18;;;;;;;15.41;51.36;98982.72;4991063;28;20023;-77
2023/04/03 09:48:13;;;;;;;18.40;10.95;;;;;;;15.28;52.29;98935.81;4987349;28;20045;-77
2023/04/03 09:50:51;;;;;;;13.63;9.57;;;;;;;15.50;52.72;98965.44;4983104;28;20037;-76
2023/04/03 09:53:30;;;;;;;12.65;8.85;;;;;;;15.42;53.62;98950.59;4990173;28;20026;-77
2023/04/03 09:55:56;;;;;;;14.20;9.50;;;;;;;15.44;53.35;98956.50;4987396;28;20070;-76
2023/04/03 09:58:25;;;;;;;10.68;8.15;;;;;;;15.46;53.43;98953.63;4989476;28;20049;-76
2023/04/03 10:01:01;;;;;;;13.13;8.82;;;;;;;14.30;53.87;98760.47;4991466;28;20625;-75
2023/04/03 10:03:34;;;;;;;14.90;8.95;;;;;;;15.37;54.48;98942.47;4991106;28;20061;-76
2023/04/03 10:06:00;;;;;;;12.65;9.30;;;;;;;15.34;54.49;98948.22;4992157;28;20109;-76
2023/04/03 10:08:27;;;;;;;13.88;9.45;;;;;;;15.33;54.96;98935.16;4991445;28;20161;-76
2023/04/03 10:11:25;;;;;;;12.15;9.27;;;;;;;15.34;54.56;98939.44;4990558;28;20038;-76
2023/04/03 10:13:56;;;;;;;17.23;8.85;;;;;;;15.30;54.83;98948.91;4956860;28;20511;-76
2023/04/03 10:16:52;;;;;;;13.25;8.70;;;;;;;15.20;56.01;98944.91;4991367;28;20499;-76
2023/04/03 10:19:23;;;;;;;9.77;7.88;;;;;;;15.16;55.86;98946.41;4968138;28;20031;-76
2023/04/03 10:22:02;;;;;;;10.57;7.97;;;;;;;15.02;55.94;98938.78;4998118;28;20030;-76
2023/04/03 10:24:52;;;;;;;11.82;8.38;;;;;;;15.12;55.93;98945.22;4991064;28;20092;-76
2023/04/03 10:27:27;;;;;;;12.30;8.35;;;;;;;14.86;56.90;98898.47;4993347;28;20523;-76
2023/04/03 10:30:03;;;;;;;10.13;7.95;;;;;;;15.23;56.46;98949.78;4988195;28;20419;-77
2023/04/03 10:32:44;;;;;;;9.43;6.97;;;;;;;15.35;56.29;98941.06;4986422;28;20121;-76
2023/04/03 10:35:12;;;;;;;17.98;12.82;;;;;;;15.43;56.52;98935.44;4991675;28;20026;-76
2023/04/03 10:38:09;;;;;;;15.75;12.15;;;;;;;15.23;56.31;98880.66;4991438;28;20041;-76
2023/04/03 10:41:04;;;;;;;16.17;9.75;;;;;;;15.73;55.65;98931.00;4987672;28;20085;-76
2023/04/03 10:43:47;;;;;;;18.38;13.73;;;;;;;15.89;55.79;98932.22;4981541;28;20030;-76
2023/04/03 10:46:34;;;;;;;20.40;14.32;;;;;;;15.38;55.21;98820.91;4993598;28;20106;-76
2023/04/03 10:49:25;;;;;;;12.25;8.35;;;;;;;15.95;55.30;98922.50;4989703;28;20514;-77
2023/04/03 10:52:18;;;;;;;16.13;13.40;;;;;;;15.92;55.46;98912.31;4984417;28;20030;-77
2023/04/03 10:54:56;;;;;;;27.20;18.90;;;;;;;15.96;55.33;98911.63;4987724;28;20038;-77
2023/04/03 10:57:25;;;;;;;15.88;8.68;;;;;;;15.22;55.28;98825.03;4987992;28;20033;-77
2023/04/03 10:59:55;;;;;;;10.10;6.63;;;;;;;15.81;55.08;98903.25;5000409;28;20046;-77
2023/04/03 11:02:30;;;;;;;14.32;7.68;;;;;;;15.84;54.98;98908.94;4989011;28;20041;-77
2023/04/03 11:05:08;;;;;;;11.90;7.30;;;;;;;14.98;55.46;98773.59;4990099;28;20034;-77
2023/04/03 11:07:42;;;;;;;14.60;7.50;;;;;;;15.65;55.19;98886.06;4989375;28;20038;-77
2023/04/03 11:10:45;;;;;;;12.75;7.18;;;;;;;15.50;55.81;98874.97;4990014;28;20026;-77
2023/04/03 11:13:28;;;;;;;10.25;6.28;;;;;;;15.66;55.44;98897.53;4971992;28;20034;-77
2023/04/03 11:15:55;;;;;;;13.23;8.88;;;;;;;15.64;55.64;98900.41;4990418;28;20026;-77
2023/04/03 11:18:44;;;;;;;11.60;8.35;;;;;;;15.39;56.25;98844.63;4989154;28;20459;-77
2023/04/03 11:21:21;;;;;;;13.73;9.45;;;;;;;15.72;56.38;98892.13;4990151;28;20061;-76
2023/04/03 11:23:47;;;;;;;15.45;8.93;;;;;;;15.74;56.26;98889.22;5010764;28;20117;-76
2023/04/03 11:26:20;;;;;;;13.18;9.85;;;;;;;15.74;56.69;98890.03;4986692;28;20037;-76
2023/04/03 11:28:46;;;;;;;13.23;9.85;;;;;;;15.62;57.29;98893.69;4989107;28;20034;-76
2023/04/03 11:31:40;;;;;;;13.90;9.02;;;;;;;15.62;57.53;98901.69;4989423;28;20026;-76
2023/04/03 11:34:40;;;;;;;14.57;8.95;;;;;;;15.50;58.57;98902.38;4988343;28;20414;-76